sensor_id;sensor_type;location;lat;lon;timestamp;P1;durP1;ratioP1;P2;durP2;ratioP2
10659;SDS011;5378;53.206;13.316;2023-03-01T00:00:22;25.35;;;7.53;;
10659;SDS011;5378;53.206;13.316;2023-03-01T00:03:09;11.00;;;5.57;;
10659;SDS011;5378;53.206;13.316;2023-03-01T00:05:56;13.35;;;5.70;;
10659;SDS011;5378;53.206;13.316;2023-03-01T00:08:43;12.23;;;4.85;;
10659;SDS011;5378;53.206;13.316;2023-03-01T00:11:32;9.15;;;5.25;;
10659;SDS011;5378;53.206;13.316;2023-03-01T00:14:20;9.93;;;5.07;;
10659;SDS011;5378;53.206;13.316;2023-03-01T00:17:07;13.23;;;5.70;;
10659;SDS011;5378;53.206;13.316;2023-03-01T00:19:54;16.45;;;7.03;;
10659;SDS011;5378;53.206;13.316;2023-03-01T00:22:41;20.05;;;6.05;;
10659;SDS011;5378;53.206;13.316;2023-03-01T00:25:29;8.18;;;4.15;;
10659;SDS011;5378;53.206;13.316;2023-03-01T00:28:17;9.48;;;5.10;;
10659;SDS011;5378;53.206;13.316;2023-03-01T00:31:05;11.23;;;6.47;;
10659;SDS011;5378;53.206;13.316;2023-03-01T00:33:54;10.52;;;5.57;;
10659;SDS011;5378;53.206;13.316;2023-03-01T00:36:42;10.93;;;4.75;;
10659;SDS011;5378;53.206;13.316;2023-03-01T00:39:29;13.93;;;5.00;;
10659;SDS011;5378;53.206;13.316;2023-03-01T00:42:17;8.82;;;3.88;;
10659;SDS011;5378;53.206;13.316;2023-03-01T00:45:06;25.00;;;6.00;;
10659;SDS011;5378;53.206;13.316;2023-03-01T00:47:54;8.55;;;4.10;;
10659;SDS011;5378;53.206;13.316;2023-03-01T00:50:41;9.45;;;4.45;;
10659;SDS011;5378;53.206;13.316;2023-03-01T00:53:28;11.05;;;5.70;;
10659;SDS011;5378;53.206;13.316;2023-03-01T00:56:14;5.10;;;3.40;;
10659;SDS011;5378;53.206;13.316;2023-03-01T00:59:01;10.50;;;4.47;;
10659;SDS011;5378;53.206;13.316;2023-03-01T01:01:50;13.38;;;4.63;;
10659;SDS011;5378;53.206;13.316;2023-03-01T01:04:37;11.30;;;4.95;;
10659;SDS011;5378;53.206;13.316;2023-03-01T01:07:24;7.70;;;4.32;;
10659;SDS011;5378;53.206;13.316;2023-03-01T01:10:11;6.65;;;3.35;;
10659;SDS011;5378;53.206;13.316;2023-03-01T01:13:02;11.80;;;4.45;;
10659;SDS011;5378;53.206;13.316;2023-03-01T01:15:49;12.75;;;5.50;;
10659;SDS011;5378;53.206;13.316;2023-03-01T01:18:37;11.98;;;7.60;;
10659;SDS011;5378;53.206;13.316;2023-03-01T01:21:26;13.40;;;6.32;;
10659;SDS011;5378;53.206;13.316;2023-03-01T01:24:14;18.15;;;6.38;;
10659;SDS011;5378;53.206;13.316;2023-03-01T01:27:01;13.93;;;5.30;;
10659;SDS011;5378;53.206;13.316;2023-03-01T01:29:49;10.35;;;5.75;;
10659;SDS011;5378;53.206;13.316;2023-03-01T01:32:36;9.10;;;5.05;;
10659;SDS011;5378;53.206;13.316;2023-03-01T01:35:24;12.80;;;5.90;;
10659;SDS011;5378;53.206;13.316;2023-03-01T01:38:11;10.15;;;4.30;;
10659;SDS011;5378;53.206;13.316;2023-03-01T01:40:59;10.13;;;4.45;;
10659;SDS011;5378;53.206;13.316;2023-03-01T01:43:47;12.63;;;4.68;;
10659;SDS011;5378;53.206;13.316;2023-03-01T01:46:35;9.70;;;4.00;;
10659;SDS011;5378;53.206;13.316;2023-03-01T01:49:27;9.43;;;4.63;;
10659;SDS011;5378;53.206;13.316;2023-03-01T01:52:20;11.43;;;5.18;;
10659;SDS011;5378;53.206;13.316;2023-03-01T01:55:11;11.07;;;5.28;;
10659;SDS011;5378;53.206;13.316;2023-03-01T01:58:03;8.00;;;3.40;;
10659;SDS011;5378;53.206;13.316;2023-03-01T02:00:53;19.95;;;5.07;;
10659;SDS011;5378;53.206;13.316;2023-03-01T02:03:40;12.90;;;4.15;;
10659;SDS011;5378;53.206;13.316;2023-03-01T02:06:29;8.25;;;4.43;;
10659;SDS011;5378;53.206;13.316;2023-03-01T02:09:21;8.02;;;3.63;;
10659;SDS011;5378;53.206;13.316;2023-03-01T02:12:12;7.65;;;3.70;;
10659;SDS011;5378;53.206;13.316;2023-03-01T02:15:00;11.25;;;4.05;;
10659;SDS011;5378;53.206;13.316;2023-03-01T02:17:47;6.53;;;3.45;;
10659;SDS011;5378;53.206;13.316;2023-03-01T02:20:35;9.13;;;4.35;;
10659;SDS011;5378;53.206;13.316;2023-03-01T02:23:34;6.30;;;3.00;;
10659;SDS011;5378;53.206;13.316;2023-03-01T02:26:25;5.68;;;2.75;;
10659;SDS011;5378;53.206;13.316;2023-03-01T02:29:20;8.55;;;3.53;;
10659;SDS011;5378;53.206;13.316;2023-03-01T02:32:07;7.25;;;4.20;;
10659;SDS011;5378;53.206;13.316;2023-03-01T02:34:55;13.38;;;3.60;;
10659;SDS011;5378;53.206;13.316;2023-03-01T02:37:43;7.00;;;3.75;;
10659;SDS011;5378;53.206;13.316;2023-03-01T02:40:31;4.85;;;2.53;;
10659;SDS011;5378;53.206;13.316;2023-03-01T02:43:20;6.15;;;3.05;;
10659;SDS011;5378;53.206;13.316;2023-03-01T02:46:15;7.68;;;3.15;;
10659;SDS011;5378;53.206;13.316;2023-03-01T02:49:16;4.18;;;2.33;;
10659;SDS011;5378;53.206;13.316;2023-03-01T02:52:09;4.40;;;2.00;;
10659;SDS011;5378;53.206;13.316;2023-03-01T02:55:06;3.65;;;1.88;;
10659;SDS011;5378;53.206;13.316;2023-03-01T02:57:57;5.30;;;2.50;;
10659;SDS011;5378;53.206;13.316;2023-03-01T03:00:49;7.03;;;2.28;;
10659;SDS011;5378;53.206;13.316;2023-03-01T03:03:38;3.92;;;2.78;;
10659;SDS011;5378;53.206;13.316;2023-03-01T03:06:25;5.43;;;2.13;;
10659;SDS011;5378;53.206;13.316;2023-03-01T03:09:13;5.90;;;2.90;;
10659;SDS011;5378;53.206;13.316;2023-03-01T03:12:02;5.95;;;3.05;;
10659;SDS011;5378;53.206;13.316;2023-03-01T03:14:50;5.32;;;2.33;;
10659;SDS011;5378;53.206;13.316;2023-03-01T03:17:37;9.70;;;2.95;;
10659;SDS011;5378;53.206;13.316;2023-03-01T03:20:27;7.05;;;2.92;;
10659;SDS011;5378;53.206;13.316;2023-03-01T03:23:15;6.28;;;3.10;;
10659;SDS011;5378;53.206;13.316;2023-03-01T03:26:02;8.27;;;3.00;;
10659;SDS011;5378;53.206;13.316;2023-03-01T03:28:50;5.60;;;2.80;;
10659;SDS011;5378;53.206;13.316;2023-03-01T03:31:37;8.32;;;3.88;;
10659;SDS011;5378;53.206;13.316;2023-03-01T03:34:24;6.30;;;2.80;;
10659;SDS011;5378;53.206;13.316;2023-03-01T03:37:13;5.78;;;2.67;;
10659;SDS011;5378;53.206;13.316;2023-03-01T03:40:14;7.70;;;2.65;;
10659;SDS011;5378;53.206;13.316;2023-03-01T03:43:01;9.20;;;3.30;;
10659;SDS011;5378;53.206;13.316;2023-03-01T03:45:49;5.53;;;2.75;;
10659;SDS011;5378;53.206;13.316;2023-03-01T03:48:38;5.65;;;3.03;;
10659;SDS011;5378;53.206;13.316;2023-03-01T03:51:26;5.25;;;2.83;;
10659;SDS011;5378;53.206;13.316;2023-03-01T03:54:14;7.53;;;3.30;;
10659;SDS011;5378;53.206;13.316;2023-03-01T03:57:02;6.07;;;3.45;;
10659;SDS011;5378;53.206;13.316;2023-03-01T03:59:49;5.38;;;3.85;;
10659;SDS011;5378;53.206;13.316;2023-03-01T04:02:36;5.38;;;2.47;;
10659;SDS011;5378;53.206;13.316;2023-03-01T04:05:23;4.70;;;2.90;;
10659;SDS011;5378;53.206;13.316;2023-03-01T04:08:12;5.60;;;3.08;;
10659;SDS011;5378;53.206;13.316;2023-03-01T04:11:02;5.32;;;3.17;;
10659;SDS011;5378;53.206;13.316;2023-03-01T04:14:10;6.07;;;2.92;;
10659;SDS011;5378;53.206;13.316;2023-03-01T04:16:57;8.00;;;4.75;;
10659;SDS011;5378;53.206;13.316;2023-03-01T04:19:44;6.90;;;3.30;;
10659;SDS011;5378;53.206;13.316;2023-03-01T04:22:34;7.47;;;2.92;;
10659;SDS011;5378;53.206;13.316;2023-03-01T04:25:21;4.97;;;2.67;;
10659;SDS011;5378;53.206;13.316;2023-03-01T04:28:11;5.03;;;3.13;;
10659;SDS011;5378;53.206;13.316;2023-03-01T04:31:01;7.40;;;3.00;;
10659;SDS011;5378;53.206;13.316;2023-03-01T04:33:58;11.50;;;3.45;;
10659;SDS011;5378;53.206;13.316;2023-03-01T04:36:45;4.53;;;2.90;;
10659;SDS011;5378;53.206;13.316;2023-03-01T04:39:33;6.57;;;2.80;;
10659;SDS011;5378;53.206;13.316;2023-03-01T04:42:31;4.93;;;2.90;;
10659;SDS011;5378;53.206;13.316;2023-03-01T04:45:19;3.47;;;2.70;;
10659;SDS011;5378;53.206;13.316;2023-03-01T04:48:06;10.68;;;2.88;;
10659;SDS011;5378;53.206;13.316;2023-03-01T04:50:53;6.80;;;3.13;;
10659;SDS011;5378;53.206;13.316;2023-03-01T04:53:40;9.05;;;3.70;;
10659;SDS011;5378;53.206;13.316;2023-03-01T04:56:28;6.95;;;2.35;;
10659;SDS011;5378;53.206;13.316;2023-03-01T04:59:16;5.63;;;2.70;;
10659;SDS011;5378;53.206;13.316;2023-03-01T05:02:04;8.10;;;2.13;;
10659;SDS011;5378;53.206;13.316;2023-03-01T05:04:51;9.13;;;2.75;;
10659;SDS011;5378;53.206;13.316;2023-03-01T05:07:43;9.48;;;3.75;;
10659;SDS011;5378;53.206;13.316;2023-03-01T05:10:30;8.10;;;2.60;;
10659;SDS011;5378;53.206;13.316;2023-03-01T05:13:18;9.02;;;3.28;;
10659;SDS011;5378;53.206;13.316;2023-03-01T05:16:08;5.15;;;2.83;;
10659;SDS011;5378;53.206;13.316;2023-03-01T05:18:58;5.88;;;2.50;;
10659;SDS011;5378;53.206;13.316;2023-03-01T05:21:46;10.57;;;3.72;;
10659;SDS011;5378;53.206;13.316;2023-03-01T05:24:49;5.82;;;2.67;;
10659;SDS011;5378;53.206;13.316;2023-03-01T05:27:36;5.30;;;3.05;;
10659;SDS011;5378;53.206;13.316;2023-03-01T05:30:23;9.15;;;3.00;;
10659;SDS011;5378;53.206;13.316;2023-03-01T05:33:11;9.68;;;3.50;;
10659;SDS011;5378;53.206;13.316;2023-03-01T05:36:01;6.78;;;3.50;;
10659;SDS011;5378;53.206;13.316;2023-03-01T05:38:48;9.05;;;3.20;;
10659;SDS011;5378;53.206;13.316;2023-03-01T05:41:35;7.80;;;2.75;;
10659;SDS011;5378;53.206;13.316;2023-03-01T05:44:22;5.00;;;3.25;;
10659;SDS011;5378;53.206;13.316;2023-03-01T05:47:10;7.00;;;3.20;;
10659;SDS011;5378;53.206;13.316;2023-03-01T05:49:57;5.70;;;3.33;;
10659;SDS011;5378;53.206;13.316;2023-03-01T05:52:47;5.80;;;3.65;;
10659;SDS011;5378;53.206;13.316;2023-03-01T05:55:36;8.43;;;3.15;;
10659;SDS011;5378;53.206;13.316;2023-03-01T05:58:24;5.75;;;3.05;;
10659;SDS011;5378;53.206;13.316;2023-03-01T06:01:11;5.22;;;2.60;;
10659;SDS011;5378;53.206;13.316;2023-03-01T06:03:59;4.50;;;2.80;;
10659;SDS011;5378;53.206;13.316;2023-03-01T06:06:46;17.15;;;3.35;;
10659;SDS011;5378;53.206;13.316;2023-03-01T06:09:35;8.80;;;3.15;;
10659;SDS011;5378;53.206;13.316;2023-03-01T06:12:22;3.30;;;2.13;;
10659;SDS011;5378;53.206;13.316;2023-03-01T06:15:09;6.03;;;3.03;;
10659;SDS011;5378;53.206;13.316;2023-03-01T06:17:57;6.05;;;2.67;;
10659;SDS011;5378;53.206;13.316;2023-03-01T06:20:45;3.95;;;2.60;;
10659;SDS011;5378;53.206;13.316;2023-03-01T06:23:39;10.00;;;2.65;;
10659;SDS011;5378;53.206;13.316;2023-03-01T06:26:27;6.07;;;4.07;;
10659;SDS011;5378;53.206;13.316;2023-03-01T06:29:14;6.25;;;3.05;;
10659;SDS011;5378;53.206;13.316;2023-03-01T06:32:02;7.47;;;3.25;;
10659;SDS011;5378;53.206;13.316;2023-03-01T06:34:49;6.85;;;2.70;;
10659;SDS011;5378;53.206;13.316;2023-03-01T06:37:37;6.93;;;3.33;;
10659;SDS011;5378;53.206;13.316;2023-03-01T06:40:23;8.02;;;3.00;;
10659;SDS011;5378;53.206;13.316;2023-03-01T06:43:12;3.10;;;2.13;;
10659;SDS011;5378;53.206;13.316;2023-03-01T06:45:59;9.35;;;3.65;;
10659;SDS011;5378;53.206;13.316;2023-03-01T06:48:47;6.95;;;3.05;;
10659;SDS011;5378;53.206;13.316;2023-03-01T06:51:34;9.52;;;2.83;;
10659;SDS011;5378;53.206;13.316;2023-03-01T06:54:22;5.97;;;3.55;;
10659;SDS011;5378;53.206;13.316;2023-03-01T06:57:10;4.63;;;2.50;;
10659;SDS011;5378;53.206;13.316;2023-03-01T06:59:58;5.20;;;1.80;;
10659;SDS011;5378;53.206;13.316;2023-03-01T07:02:45;4.70;;;2.63;;
10659;SDS011;5378;53.206;13.316;2023-03-01T07:05:33;18.17;;;3.63;;
10659;SDS011;5378;53.206;13.316;2023-03-01T07:08:20;7.10;;;2.80;;
10659;SDS011;5378;53.206;13.316;2023-03-01T07:11:07;5.45;;;4.15;;
10659;SDS011;5378;53.206;13.316;2023-03-01T07:13:54;6.80;;;2.90;;
10659;SDS011;5378;53.206;13.316;2023-03-01T07:16:42;23.13;;;3.63;;
10659;SDS011;5378;53.206;13.316;2023-03-01T07:19:30;8.17;;;3.67;;
10659;SDS011;5378;53.206;13.316;2023-03-01T07:22:17;8.70;;;3.77;;
10659;SDS011;5378;53.206;13.316;2023-03-01T07:25:04;9.53;;;4.07;;
10659;SDS011;5378;53.206;13.316;2023-03-01T07:27:51;9.88;;;4.50;;
10659;SDS011;5378;53.206;13.316;2023-03-01T07:30:39;12.70;;;5.00;;
10659;SDS011;5378;53.206;13.316;2023-03-01T07:33:28;11.43;;;4.33;;
10659;SDS011;5378;53.206;13.316;2023-03-01T07:36:15;8.67;;;5.50;;
10659;SDS011;5378;53.206;13.316;2023-03-01T07:39:03;12.85;;;3.88;;
10659;SDS011;5378;53.206;13.316;2023-03-01T07:41:50;10.30;;;4.00;;
10659;SDS011;5378;53.206;13.316;2023-03-01T07:44:40;26.00;;;4.70;;
10659;SDS011;5378;53.206;13.316;2023-03-01T07:47:27;5.60;;;2.90;;
10659;SDS011;5378;53.206;13.316;2023-03-01T07:50:15;9.63;;;4.57;;
10659;SDS011;5378;53.206;13.316;2023-03-01T07:53:03;32.07;;;5.37;;
10659;SDS011;5378;53.206;13.316;2023-03-01T07:55:50;19.13;;;3.87;;
10659;SDS011;5378;53.206;13.316;2023-03-01T07:58:46;11.03;;;4.47;;
10659;SDS011;5378;53.206;13.316;2023-03-01T08:01:35;6.30;;;3.40;;
10659;SDS011;5378;53.206;13.316;2023-03-01T08:04:22;11.30;;;5.20;;
10659;SDS011;5378;53.206;13.316;2023-03-01T08:07:11;15.23;;;5.17;;
10659;SDS011;5378;53.206;13.316;2023-03-01T08:09:58;8.80;;;4.80;;
10659;SDS011;5378;53.206;13.316;2023-03-01T08:12:46;7.40;;;4.37;;
10659;SDS011;5378;53.206;13.316;2023-03-01T08:15:33;9.90;;;5.63;;
10659;SDS011;5378;53.206;13.316;2023-03-01T08:18:20;7.90;;;4.30;;
10659;SDS011;5378;53.206;13.316;2023-03-01T08:21:09;5.63;;;3.60;;
10659;SDS011;5378;53.206;13.316;2023-03-01T08:23:59;5.63;;;3.97;;
10659;SDS011;5378;53.206;13.316;2023-03-01T08:26:46;6.87;;;3.90;;
10659;SDS011;5378;53.206;13.316;2023-03-01T08:29:33;7.70;;;4.17;;
10659;SDS011;5378;53.206;13.316;2023-03-01T08:32:20;8.53;;;3.20;;
10659;SDS011;5378;53.206;13.316;2023-03-01T08:35:08;12.37;;;3.50;;
10659;SDS011;5378;53.206;13.316;2023-03-01T08:37:55;5.33;;;2.73;;
10659;SDS011;5378;53.206;13.316;2023-03-01T08:40:43;7.23;;;2.87;;
10659;SDS011;5378;53.206;13.316;2023-03-01T08:43:30;5.83;;;3.07;;
10659;SDS011;5378;53.206;13.316;2023-03-01T08:46:17;5.17;;;2.33;;
10659;SDS011;5378;53.206;13.316;2023-03-01T08:49:04;12.23;;;2.90;;
10659;SDS011;5378;53.206;13.316;2023-03-01T08:51:52;8.73;;;2.07;;
10659;SDS011;5378;53.206;13.316;2023-03-01T08:54:40;4.23;;;2.93;;
10659;SDS011;5378;53.206;13.316;2023-03-01T08:57:28;2.70;;;1.97;;
10659;SDS011;5378;53.206;13.316;2023-03-01T09:00:16;4.00;;;2.70;;
10659;SDS011;5378;53.206;13.316;2023-03-01T09:03:03;5.03;;;2.50;;
10659;SDS011;5378;53.206;13.316;2023-03-01T09:05:50;4.20;;;2.33;;
10659;SDS011;5378;53.206;13.316;2023-03-01T09:08:38;9.93;;;2.87;;
10659;SDS011;5378;53.206;13.316;2023-03-01T09:11:27;5.07;;;2.90;;
10659;SDS011;5378;53.206;13.316;2023-03-01T09:14:16;10.03;;;4.60;;
10659;SDS011;5378;53.206;13.316;2023-03-01T09:17:03;25.03;;;10.70;;
10659;SDS011;5378;53.206;13.316;2023-03-01T09:19:50;39.77;;;15.03;;
10659;SDS011;5378;53.206;13.316;2023-03-01T09:22:37;24.77;;;11.10;;
10659;SDS011;5378;53.206;13.316;2023-03-01T09:25:25;29.23;;;12.87;;
10659;SDS011;5378;53.206;13.316;2023-03-01T09:28:12;15.50;;;6.03;;
10659;SDS011;5378;53.206;13.316;2023-03-01T09:31:14;15.80;;;6.17;;
10659;SDS011;5378;53.206;13.316;2023-03-01T09:34:03;5.37;;;3.30;;
10659;SDS011;5378;53.206;13.316;2023-03-01T09:36:50;7.70;;;3.10;;
10659;SDS011;5378;53.206;13.316;2023-03-01T09:39:37;5.50;;;2.60;;
10659;SDS011;5378;53.206;13.316;2023-03-01T09:42:24;7.50;;;2.43;;
10659;SDS011;5378;53.206;13.316;2023-03-01T09:45:14;9.10;;;1.83;;
10659;SDS011;5378;53.206;13.316;2023-03-01T09:48:12;7.93;;;2.47;;
10659;SDS011;5378;53.206;13.316;2023-03-01T09:51:05;15.27;;;1.90;;
10659;SDS011;5378;53.206;13.316;2023-03-01T09:53:55;5.20;;;2.57;;
10659;SDS011;5378;53.206;13.316;2023-03-01T09:56:45;5.27;;;2.20;;
10659;SDS011;5378;53.206;13.316;2023-03-01T09:59:49;4.80;;;3.00;;
10659;SDS011;5378;53.206;13.316;2023-03-01T10:02:49;4.83;;;1.53;;
10659;SDS011;5378;53.206;13.316;2023-03-01T10:05:46;4.50;;;2.43;;
10659;SDS011;5378;53.206;13.316;2023-03-01T10:08:40;4.27;;;1.57;;
10659;SDS011;5378;53.206;13.316;2023-03-01T10:11:30;5.77;;;2.07;;
10659;SDS011;5378;53.206;13.316;2023-03-01T10:14:24;9.07;;;2.60;;
10659;SDS011;5378;53.206;13.316;2023-03-01T10:17:19;4.00;;;2.30;;
10659;SDS011;5378;53.206;13.316;2023-03-01T10:20:15;3.80;;;1.30;;
10659;SDS011;5378;53.206;13.316;2023-03-01T10:23:07;4.83;;;2.10;;
10659;SDS011;5378;53.206;13.316;2023-03-01T10:26:02;3.13;;;1.43;;
10659;SDS011;5378;53.206;13.316;2023-03-01T10:29:03;16.83;;;4.77;;
10659;SDS011;5378;53.206;13.316;2023-03-01T10:31:53;15.17;;;5.27;;
10659;SDS011;5378;53.206;13.316;2023-03-01T10:34:41;5.17;;;2.63;;
10659;SDS011;5378;53.206;13.316;2023-03-01T10:37:28;5.83;;;2.30;;
10659;SDS011;5378;53.206;13.316;2023-03-01T10:40:17;5.50;;;1.93;;
10659;SDS011;5378;53.206;13.316;2023-03-01T10:43:04;8.83;;;2.03;;
10659;SDS011;5378;53.206;13.316;2023-03-01T10:45:53;2.70;;;1.80;;
10659;SDS011;5378;53.206;13.316;2023-03-01T10:48:40;6.13;;;2.37;;
10659;SDS011;5378;53.206;13.316;2023-03-01T10:51:27;3.80;;;1.60;;
10659;SDS011;5378;53.206;13.316;2023-03-01T10:54:18;9.97;;;2.57;;
10659;SDS011;5378;53.206;13.316;2023-03-01T10:57:24;5.00;;;1.90;;
10659;SDS011;5378;53.206;13.316;2023-03-01T11:00:17;3.43;;;1.67;;
10659;SDS011;5378;53.206;13.316;2023-03-01T11:03:11;4.43;;;1.90;;
10659;SDS011;5378;53.206;13.316;2023-03-01T11:06:04;5.87;;;1.73;;
10659;SDS011;5378;53.206;13.316;2023-03-01T11:09:13;3.23;;;1.90;;
10659;SDS011;5378;53.206;13.316;2023-03-01T11:12:02;4.97;;;1.43;;
10659;SDS011;5378;53.206;13.316;2023-03-01T11:14:52;4.87;;;2.10;;
10659;SDS011;5378;53.206;13.316;2023-03-01T11:17:43;5.27;;;1.77;;
10659;SDS011;5378;53.206;13.316;2023-03-01T11:20:39;5.80;;;1.40;;
10659;SDS011;5378;53.206;13.316;2023-03-01T11:23:26;3.57;;;1.53;;
10659;SDS011;5378;53.206;13.316;2023-03-01T11:26:15;3.03;;;1.80;;
10659;SDS011;5378;53.206;13.316;2023-03-01T11:29:04;6.50;;;1.80;;
10659;SDS011;5378;53.206;13.316;2023-03-01T11:31:56;2.60;;;1.37;;
10659;SDS011;5378;53.206;13.316;2023-03-01T11:34:47;3.57;;;1.87;;
10659;SDS011;5378;53.206;13.316;2023-03-01T11:37:40;3.03;;;1.83;;
10659;SDS011;5378;53.206;13.316;2023-03-01T11:40:33;5.90;;;2.70;;
10659;SDS011;5378;53.206;13.316;2023-03-01T11:43:26;5.73;;;1.97;;
10659;SDS011;5378;53.206;13.316;2023-03-01T11:46:31;5.00;;;1.67;;
10659;SDS011;5378;53.206;13.316;2023-03-01T11:49:35;2.40;;;1.00;;
10659;SDS011;5378;53.206;13.316;2023-03-01T11:52:33;2.90;;;1.87;;
10659;SDS011;5378;53.206;13.316;2023-03-01T11:55:30;4.60;;;2.20;;
10659;SDS011;5378;53.206;13.316;2023-03-01T11:58:38;7.17;;;2.10;;
10659;SDS011;5378;53.206;13.316;2023-03-01T12:01:41;2.70;;;1.50;;
10659;SDS011;5378;53.206;13.316;2023-03-01T12:04:55;2.67;;;1.37;;
10659;SDS011;5378;53.206;13.316;2023-03-01T12:07:53;2.20;;;1.20;;
10659;SDS011;5378;53.206;13.316;2023-03-01T12:10:48;9.47;;;2.07;;
10659;SDS011;5378;53.206;13.316;2023-03-01T12:13:50;4.90;;;1.33;;
10659;SDS011;5378;53.206;13.316;2023-03-01T12:17:06;5.37;;;1.67;;
10659;SDS011;5378;53.206;13.316;2023-03-01T12:20:17;2.73;;;1.40;;
10659;SDS011;5378;53.206;13.316;2023-03-01T12:23:18;3.10;;;1.47;;
10659;SDS011;5378;53.206;13.316;2023-03-01T12:26:17;1.63;;;1.20;;
10659;SDS011;5378;53.206;13.316;2023-03-01T12:29:17;3.97;;;1.40;;
10659;SDS011;5378;53.206;13.316;2023-03-01T12:32:21;4.77;;;1.73;;
10659;SDS011;5378;53.206;13.316;2023-03-01T12:35:37;3.43;;;1.77;;
10659;SDS011;5378;53.206;13.316;2023-03-01T12:38:41;4.57;;;1.70;;
10659;SDS011;5378;53.206;13.316;2023-03-01T12:41:32;3.00;;;1.53;;
10659;SDS011;5378;53.206;13.316;2023-03-01T12:44:36;7.70;;;2.67;;
10659;SDS011;5378;53.206;13.316;2023-03-01T12:47:39;6.10;;;1.70;;
10659;SDS011;5378;53.206;13.316;2023-03-01T12:50:40;4.10;;;2.40;;
10659;SDS011;5378;53.206;13.316;2023-03-01T12:53:29;2.93;;;1.93;;
10659;SDS011;5378;53.206;13.316;2023-03-01T12:56:19;4.67;;;2.67;;
10659;SDS011;5378;53.206;13.316;2023-03-01T12:59:11;6.70;;;2.53;;
10659;SDS011;5378;53.206;13.316;2023-03-01T13:02:03;2.70;;;1.87;;
10659;SDS011;5378;53.206;13.316;2023-03-01T13:05:01;3.87;;;1.83;;
10659;SDS011;5378;53.206;13.316;2023-03-01T13:08:05;5.30;;;2.87;;
10659;SDS011;5378;53.206;13.316;2023-03-01T13:11:02;5.77;;;2.60;;
10659;SDS011;5378;53.206;13.316;2023-03-01T13:13:51;4.40;;;2.20;;
10659;SDS011;5378;53.206;13.316;2023-03-01T13:16:40;7.10;;;2.37;;
10659;SDS011;5378;53.206;13.316;2023-03-01T13:19:30;5.23;;;2.50;;
10659;SDS011;5378;53.206;13.316;2023-03-01T13:22:27;3.13;;;2.30;;
10659;SDS011;5378;53.206;13.316;2023-03-01T13:25:19;6.60;;;2.73;;
10659;SDS011;5378;53.206;13.316;2023-03-01T13:34:56;4.57;;;2.57;;
10659;SDS011;5378;53.206;13.316;2023-03-01T13:37:44;4.70;;;2.00;;
10659;SDS011;5378;53.206;13.316;2023-03-01T13:43:45;8.27;;;2.53;;
10659;SDS011;5378;53.206;13.316;2023-03-01T13:46:33;3.53;;;2.00;;
10659;SDS011;5378;53.206;13.316;2023-03-01T13:49:21;3.50;;;2.20;;
10659;SDS011;5378;53.206;13.316;2023-03-01T13:52:23;10.77;;;3.23;;
10659;SDS011;5378;53.206;13.316;2023-03-01T13:55:25;5.90;;;2.47;;
10659;SDS011;5378;53.206;13.316;2023-03-01T13:58:23;3.77;;;1.80;;
10659;SDS011;5378;53.206;13.316;2023-03-01T14:01:18;5.63;;;1.60;;
10659;SDS011;5378;53.206;13.316;2023-03-01T14:04:19;7.00;;;2.40;;
10659;SDS011;5378;53.206;13.316;2023-03-01T14:07:09;6.47;;;2.40;;
10659;SDS011;5378;53.206;13.316;2023-03-01T14:09:58;6.80;;;1.93;;
10659;SDS011;5378;53.206;13.316;2023-03-01T14:12:50;5.37;;;2.40;;
10659;SDS011;5378;53.206;13.316;2023-03-01T14:15:48;7.17;;;2.60;;
10659;SDS011;5378;53.206;13.316;2023-03-01T14:18:47;4.43;;;2.20;;
10659;SDS011;5378;53.206;13.316;2023-03-01T14:21:44;7.17;;;2.20;;
10659;SDS011;5378;53.206;13.316;2023-03-01T14:24:31;2.77;;;1.60;;
10659;SDS011;5378;53.206;13.316;2023-03-01T14:27:21;3.23;;;1.90;;
10659;SDS011;5378;53.206;13.316;2023-03-01T14:30:13;3.53;;;2.23;;
10659;SDS011;5378;53.206;13.316;2023-03-01T14:33:17;5.90;;;2.80;;
10659;SDS011;5378;53.206;13.316;2023-03-01T14:36:25;10.30;;;4.23;;
10659;SDS011;5378;53.206;13.316;2023-03-01T14:39:17;5.10;;;3.10;;
10659;SDS011;5378;53.206;13.316;2023-03-01T14:42:06;5.80;;;3.13;;
10659;SDS011;5378;53.206;13.316;2023-03-01T14:45:00;6.73;;;3.83;;
10659;SDS011;5378;53.206;13.316;2023-03-01T14:47:49;9.67;;;3.80;;
10659;SDS011;5378;53.206;13.316;2023-03-01T14:50:41;14.13;;;2.70;;
10659;SDS011;5378;53.206;13.316;2023-03-01T14:53:29;8.47;;;3.07;;
10659;SDS011;5378;53.206;13.316;2023-03-01T14:56:24;5.40;;;2.97;;
10659;SDS011;5378;53.206;13.316;2023-03-01T14:59:11;3.23;;;1.53;;
10659;SDS011;5378;53.206;13.316;2023-03-01T15:01:58;2.87;;;2.10;;
10659;SDS011;5378;53.206;13.316;2023-03-01T15:04:46;6.97;;;2.97;;
10659;SDS011;5378;53.206;13.316;2023-03-01T15:07:38;6.83;;;2.73;;
10659;SDS011;5378;53.206;13.316;2023-03-01T15:10:28;9.60;;;3.60;;
10659;SDS011;5378;53.206;13.316;2023-03-01T15:13:20;23.90;;;3.70;;
10659;SDS011;5378;53.206;13.316;2023-03-01T15:16:10;7.63;;;3.63;;
10659;SDS011;5378;53.206;13.316;2023-03-01T15:18:59;7.30;;;3.53;;
10659;SDS011;5378;53.206;13.316;2023-03-01T15:21:48;14.47;;;4.30;;
10659;SDS011;5378;53.206;13.316;2023-03-01T15:24:37;14.10;;;4.20;;
10659;SDS011;5378;53.206;13.316;2023-03-01T15:27:25;10.60;;;6.60;;
10659;SDS011;5378;53.206;13.316;2023-03-01T15:30:13;22.40;;;10.20;;
10659;SDS011;5378;53.206;13.316;2023-03-01T15:33:18;9.87;;;5.27;;
10659;SDS011;5378;53.206;13.316;2023-03-01T15:36:30;11.63;;;6.33;;
10659;SDS011;5378;53.206;13.316;2023-03-01T15:39:27;9.73;;;5.80;;
10659;SDS011;5378;53.206;13.316;2023-03-01T15:42:36;13.73;;;5.87;;
10659;SDS011;5378;53.206;13.316;2023-03-01T15:45:24;15.40;;;5.43;;
10659;SDS011;5378;53.206;13.316;2023-03-01T15:48:14;13.83;;;6.33;;
10659;SDS011;5378;53.206;13.316;2023-03-01T15:51:09;18.80;;;7.07;;
10659;SDS011;5378;53.206;13.316;2023-03-01T15:54:00;11.67;;;6.33;;
10659;SDS011;5378;53.206;13.316;2023-03-01T15:56:49;15.43;;;7.17;;
10659;SDS011;5378;53.206;13.316;2023-03-01T15:59:38;15.03;;;6.87;;
10659;SDS011;5378;53.206;13.316;2023-03-01T16:02:25;19.30;;;7.53;;
10659;SDS011;5378;53.206;13.316;2023-03-01T16:05:15;13.47;;;6.27;;
10659;SDS011;5378;53.206;13.316;2023-03-01T16:08:06;16.60;;;7.00;;
10659;SDS011;5378;53.206;13.316;2023-03-01T16:10:53;17.40;;;7.13;;
10659;SDS011;5378;53.206;13.316;2023-03-01T16:13:40;16.03;;;7.27;;
10659;SDS011;5378;53.206;13.316;2023-03-01T16:16:29;15.50;;;6.97;;
10659;SDS011;5378;53.206;13.316;2023-03-01T16:19:16;15.27;;;7.27;;
10659;SDS011;5378;53.206;13.316;2023-03-01T16:22:04;20.17;;;8.27;;
10659;SDS011;5378;53.206;13.316;2023-03-01T16:24:51;20.93;;;8.80;;
10659;SDS011;5378;53.206;13.316;2023-03-01T16:27:38;16.70;;;6.93;;
10659;SDS011;5378;53.206;13.316;2023-03-01T16:30:28;18.90;;;8.30;;
10659;SDS011;5378;53.206;13.316;2023-03-01T16:33:17;21.57;;;9.20;;
10659;SDS011;5378;53.206;13.316;2023-03-01T16:36:10;19.33;;;8.60;;
10659;SDS011;5378;53.206;13.316;2023-03-01T16:38:59;19.83;;;9.10;;
10659;SDS011;5378;53.206;13.316;2023-03-01T16:41:48;23.93;;;9.40;;
10659;SDS011;5378;53.206;13.316;2023-03-01T16:44:35;20.90;;;9.30;;
10659;SDS011;5378;53.206;13.316;2023-03-01T16:47:22;37.30;;;11.50;;
10659;SDS011;5378;53.206;13.316;2023-03-01T16:50:11;28.50;;;9.93;;
10659;SDS011;5378;53.206;13.316;2023-03-01T16:52:58;17.13;;;8.53;;
10659;SDS011;5378;53.206;13.316;2023-03-01T16:55:49;20.87;;;8.50;;
10659;SDS011;5378;53.206;13.316;2023-03-01T16:58:40;20.50;;;9.00;;
10659;SDS011;5378;53.206;13.316;2023-03-01T17:01:27;26.90;;;10.10;;
10659;SDS011;5378;53.206;13.316;2023-03-01T17:04:18;21.30;;;9.70;;
10659;SDS011;5378;53.206;13.316;2023-03-01T17:07:07;25.80;;;9.63;;
10659;SDS011;5378;53.206;13.316;2023-03-01T17:09:54;33.97;;;10.50;;
10659;SDS011;5378;53.206;13.316;2023-03-01T17:12:41;22.60;;;10.87;;